Time;durP1;ratioP1;P1;durP2;ratioP2;P2;SDS_P1;SDS_P2;PMS_P1;PMS_P2;Temp;Humidity;BMP_temperature;BMP_pressure;BME280_temperature;BME280_humidity;BME280_pressure;Samples;Min_cycle;Max_cycle;Signal;HPM_P1;HPM_P2
2021/04/23 00:02:12;;;;;;;2.83;1.48;;;20.70;37.50;;;;;;5038362;28;20431;-49
2021/04/23 00:04:37;;;;;;;2.72;1.52;;;20.70;37.50;;;;;;5037807;28;20048;-49
2021/04/23 00:07:03;;;;;;;2.42;1.23;;;20.70;37.50;;;;;;5038181;28;20030;-47
2021/04/23 00:09:34;;;;;;;3.17;1.20;;;20.70;37.50;;;;;;5037901;28;20048;-49
2021/04/23 00:12:08;;;;;;;1.70;1.30;;;20.70;37.50;;;;;;5037920;28;20042;-50
2021/04/23 00:14:39;;;;;;;3.08;1.67;;;20.60;37.50;;;;;;5037867;28;20036;-50
2021/04/23 00:17:05;;;;;;;3.67;1.38;;;20.70;37.50;;;;;;5037842;28;20041;-53
2021/04/23 00:19:31;;;;;;;2.28;1.02;;;20.60;37.50;;;;;;5037872;28;20021;-49
2021/04/23 00:21:57;;;;;;;3.40;1.67;;;20.60;37.40;;;;;;5037950;28;20104;-49
2021/04/23 00:24:23;;;;;;;4.50;1.63;;;20.60;37.50;;;;;;5037625;28;20049;-47
2021/04/23 00:26:49;;;;;;;5.35;1.45;;;20.60;37.50;;;;;;5037357;28;20029;-48
2021/04/23 00:29:15;;;;;;;4.75;1.65;;;20.60;37.50;;;;;;5037990;28;20503;-47
2021/04/23 00:34:27;;;;;;;2.40;1.25;;;20.60;37.40;;;;;;5037134;28;20103;-44
2021/04/23 00:36:52;;;;;;;3.13;1.25;;;20.50;37.40;;;;;;5037984;28;20022;-45
2021/04/23 00:39:18;;;;;;;4.78;2.15;;;20.50;37.40;;;;;;5037379;28;20113;-46
2021/04/23 00:41:43;;;;;;;2.75;1.45;;;20.50;37.40;;;;;;5037721;28;20087;-49
2021/04/23 00:44:09;;;;;;;3.15;1.60;;;20.50;37.40;;;;;;5037359;28;20033;-47
2021/04/23 00:46:35;;;;;;;4.53;1.48;;;20.50;37.30;;;;;;5037430;28;20372;-46
2021/04/23 00:49:02;;;;;;;1.80;1.25;;;20.40;37.30;;;;;;5037302;28;20022;-45
2021/04/23 00:51:33;;;;;;;3.45;1.45;;;20.50;37.30;;;;;;5037170;28;20038;-47
2021/04/23 00:54:00;;;;;;;3.10;1.30;;;20.50;37.30;;;;;;5037352;28;20080;-45
2021/04/23 00:56:32;;;;;;;2.95;1.40;;;20.40;37.30;;;;;;5037113;28;20033;-45
2021/04/23 00:58:58;;;;;;;3.70;1.55;;;20.40;37.30;;;;;;5036800;28;20354;-48
2021/04/23 01:01:30;;;;;;;3.90;1.70;;;20.40;37.30;;;;;;5036656;28;20029;-47
2021/04/23 01:03:56;;;;;;;4.35;1.60;;;20.40;37.30;;;;;;5036829;28;20082;-46
2021/04/23 01:06:26;;;;;;;4.00;1.63;;;20.40;37.30;;;;;;5037329;28;20025;-46
2021/04/23 01:08:53;;;;;;;2.90;1.50;;;20.40;37.30;;;;;;5036622;28;20017;-47
2021/04/23 01:11:24;;;;;;;1.70;1.27;;;20.40;37.30;;;;;;5036768;28;20317;-46
2021/04/23 01:13:50;;;;;;;2.97;1.55;;;20.30;37.30;;;;;;5036797;28;20179;-49
2021/04/23 01:16:21;;;;;;;3.92;1.50;;;20.30;37.20;;;;;;5036276;28;20072;-46
2021/04/23 01:18:48;;;;;;;3.17;1.65;;;20.30;37.20;;;;;;5037103;28;20026;-46
2021/04/23 01:21:20;;;;;;;2.83;1.60;;;20.30;37.10;;;;;;5036572;28;20501;-48
2021/04/23 01:23:47;;;;;;;4.38;1.70;;;20.30;37.20;;;;;;5036693;28;20037;-47
2021/04/23 01:26:15;;;;;;;2.53;1.70;;;20.30;37.10;;;;;;5036079;28;20049;-49
2021/04/23 01:28:42;;;;;;;4.22;1.60;;;20.30;37.20;;;;;;5035972;28;20348;-49
2021/04/23 01:31:10;;;;;;;3.13;1.50;;;20.20;37.10;;;;;;5036392;28;20056;-48
2021/04/23 01:33:38;;;;;;;3.58;1.60;;;20.20;37.10;;;;;;5036406;28;20034;-46
2021/04/23 01:36:05;;;;;;;2.25;1.60;;;20.20;37.10;;;;;;5036804;28;20022;-46
2021/04/23 01:38:31;;;;;;;2.22;1.40;;;20.20;37.00;;;;;;5036335;28;20032;-48
2021/04/23 01:40:57;;;;;;;3.75;1.70;;;20.20;37.10;;;;;;5036296;28;20025;-47
2021/04/23 01:43:23;;;;;;;2.85;1.42;;;20.20;37.10;;;;;;5036049;28;20036;-47
2021/04/23 01:45:48;;;;;;;3.10;1.50;;;20.20;37.10;;;;;;5036365;28;20083;-47
2021/04/23 01:48:16;;;;;;;2.97;1.60;;;20.20;37.10;;;;;;5036461;28;20112;-47
2021/04/23 01:50:42;;;;;;;3.58;1.27;;;20.10;37.00;;;;;;5035691;28;20032;-47
2021/04/23 01:53:08;;;;;;;2.72;1.38;;;20.10;37.00;;;;;;5036035;28;20163;-49
2021/04/23 01:55:34;;;;;;;2.83;1.50;;;20.10;37.00;;;;;;5035671;28;20053;-48
2021/04/23 01:58:00;;;;;;;2.22;1.50;;;20.10;37.00;;;;;;5036049;28;20057;-47
2021/04/23 02:00:28;;;;;;;2.63;1.27;;;20.10;37.00;;;;;;5035902;28;20467;-46
2021/04/23 02:02:58;;;;;;;2.40;1.63;;;20.10;37.00;;;;;;5035802;28;20112;-49
2021/04/23 02:05:23;;;;;;;2.97;1.60;;;20.00;37.00;;;;;;5035545;28;20466;-48
2021/04/23 02:07:50;;;;;;;3.90;1.70;;;20.10;37.00;;;;;;5035827;28;20022;-47
2021/04/23 02:10:21;;;;;;;2.28;1.45;;;20.00;37.00;;;;;;5035763;28;20099;-47
2021/04/23 02:12:47;;;;;;;2.75;1.48;;;20.00;37.00;;;;;;5036106;28;20049;-49
2021/04/23 02:15:15;;;;;;;4.05;1.65;;;20.10;37.10;;;;;;5035257;28;20364;-48
2021/04/23 02:17:43;;;;;;;2.38;1.70;;;20.00;37.00;;;;;;5035619;28;20053;-49
2021/04/23 02:20:13;;;;;;;1.60;1.35;;;20.00;37.00;;;;;;5035558;28;20068;-47
2021/04/23 02:22:40;;;;;;;1.98;1.27;;;20.00;37.00;;;;;;5035575;28;20029;-50
2021/04/23 02:25:07;;;;;;;2.15;1.45;;;20.00;37.00;;;;;;5035306;28;20042;-48
2021/04/23 02:27:33;;;;;;;2.83;1.50;;;20.00;37.00;;;;;;5035378;28;20029;-47
2021/04/23 02:29:58;;;;;;;2.28;1.45;;;19.90;36.90;;;;;;5035025;28;20029;-46
2021/04/23 02:32:24;;;;;;;2.42;1.55;;;19.90;36.90;;;;;;5035780;28;20073;-48
2021/04/23 02:34:49;;;;;;;2.80;1.40;;;19.90;36.90;;;;;;5018225;28;20052;-47
2021/04/23 02:37:15;;;;;;;3.10;1.83;;;19.90;36.90;;;;;;5018273;28;20022;-47
2021/04/23 02:39:41;;;;;;;4.90;1.73;;;19.90;36.90;;;;;;5034961;28;20056;-47
2021/04/23 02:42:06;;;;;;;2.72;1.55;;;19.90;36.90;;;;;;5035279;28;20038;-50
2021/04/23 02:44:32;;;;;;;2.63;1.50;;;19.90;36.90;;;;;;5035164;28;20356;-49
2021/04/23 02:46:58;;;;;;;2.47;1.55;;;19.90;36.90;;;;;;5034829;28;20159;-48
2021/04/23 02:49:24;;;;;;;2.80;1.60;;;19.90;36.90;;;;;;5035091;28;20041;-47
2021/04/23 02:51:49;;;;;;;3.15;1.40;;;19.90;37.60;;;;;;5034928;28;20029;-48
2021/04/23 02:54:19;;;;;;;2.63;1.25;;;19.80;36.80;;;;;;5034522;28;20112;-49
2021/04/23 02:56:45;;;;;;;3.88;1.70;;;19.80;36.80;;;;;;5034979;28;20026;-50
2021/04/23 02:59:11;;;;;;;4.00;1.45;;;19.80;36.80;;;;;;5034657;28;20444;-45
2021/04/23 03:01:43;;;;;;;2.53;1.45;;;19.80;36.80;;;;;;5034092;28;20030;-47
2021/04/23 03:04:09;;;;;;;4.22;1.63;;;19.80;36.80;;;;;;5035311;28;20064;-48
2021/04/23 03:06:35;;;;;;;3.40;1.40;;;19.80;36.80;;;;;;5034838;28;20425;-45
2021/04/23 03:09:02;;;;;;;2.75;1.38;;;19.80;36.80;;;;;;5034719;28;20040;-49
2021/04/23 03:11:28;;;;;;;3.80;2.00;;;19.80;36.80;;;;;;5034740;28;20040;-46
2021/04/23 03:13:56;;;;;;;2.92;1.52;;;19.70;36.70;;;;;;5035056;28;20104;-48
2021/04/23 03:16:23;;;;;;;2.45;1.73;;;19.70;36.70;;;;;;5034957;28;20045;-46
2021/04/23 03:18:49;;;;;;;3.03;1.60;;;19.70;36.70;;;;;;5034923;28;20372;-47
2021/04/23 03:21:17;;;;;;;2.90;1.20;;;19.70;36.70;;;;;;5035149;28;20025;-48
2021/04/23 03:23:43;;;;;;;3.22;1.42;;;19.70;36.60;;;;;;5035208;28;20075;-47
2021/04/23 03:26:11;;;;;;;2.50;1.40;;;19.70;36.60;;;;;;5034991;28;20059;-48
2021/04/23 03:28:38;;;;;;;2.78;1.45;;;19.70;37.30;;;;;;5035030;28;20044;-48
2021/04/23 03:31:05;;;;;;;1.55;1.23;;;19.60;36.50;;;;;;5034773;28;20083;-50
2021/04/23 03:33:31;;;;;;;3.95;1.38;;;19.70;36.60;;;;;;5034820;28;20030;-47
2021/04/23 03:35:58;;;;;;;4.70;1.75;;;19.60;36.60;;;;;;5034441;28;20392;-50
2021/04/23 03:38:26;;;;;;;1.92;1.20;;;19.60;37.20;;;;;;5034157;28;20053;-50
2021/04/23 03:40:53;;;;;;;4.43;1.55;;;19.60;37.00;;;;;;5034912;28;20029;-54
2021/04/23 03:43:18;;;;;;;1.92;1.40;;;19.60;36.90;;;;;;5034734;28;20372;-49
2021/04/23 03:45:45;;;;;;;2.90;1.42;;;19.60;36.90;;;;;;5034150;28;20040;-52
2021/04/23 03:48:10;;;;;;;4.78;1.35;;;19.60;37.50;;;;;;5034553;28;20356;-50
2021/04/23 03:50:37;;;;;;;5.50;1.58;;;19.60;36.80;;;;;;5034636;28;20026;-48
2021/04/23 03:53:06;;;;;;;2.33;1.50;;;19.60;37.40;;;;;;5034626;28;20551;-48
2021/04/23 03:55:40;;;;;;;3.60;1.42;;;19.50;36.70;;;;;;5034808;28;20112;-47
2021/04/23 03:58:06;;;;;;;2.67;1.27;;;19.50;36.70;;;;;;5034863;28;20018;-49
2021/04/23 04:00:44;;;;;;;3.40;1.02;;;19.50;36.70;;;;;;5034544;28;20022;-48
2021/04/23 04:03:10;;;;;;;4.53;1.52;;;19.50;36.70;;;;;;5034068;28;20025;-53
2021/04/23 04:05:36;;;;;;;2.30;1.23;;;19.50;36.70;;;;;;5035080;28;20447;-46
2021/04/23 04:08:05;;;;;;;1.25;0.98;;;19.50;36.70;;;;;;5034028;28;20030;-50
2021/04/23 04:10:31;;;;;;;4.00;1.35;;;19.40;36.60;;;;;;5034544;28;20037;-48
2021/04/23 04:12:57;;;;;;;2.17;1.25;;;19.50;36.70;;;;;;5034832;28;20038;-45
2021/04/23 04:15:24;;;;;;;3.78;1.35;;;19.50;36.70;;;;;;5037861;28;20025;-48
2021/04/23 04:17:50;;;;;;;2.30;1.27;;;19.40;36.70;;;;;;5038030;28;20029;-46
2021/04/23 04:20:17;;;;;;;5.20;1.42;;;19.40;36.60;;;;;;5038062;28;20044;-46
2021/04/23 04:22:42;;;;;;;4.10;1.33;;;19.40;36.60;;;;;;5037895;28;20039;-44
2021/04/23 04:25:13;;;;;;;2.13;1.08;;;19.40;36.60;;;;;;5037987;28;20511;-45
2021/04/23 04:27:40;;;;;;;2.63;1.20;;;19.40;36.60;;;;;;5037773;28;20032;-47
2021/04/23 04:30:07;;;;;;;3.17;1.40;;;19.40;36.60;;;;;;5037405;28;20049;-47
2021/04/23 04:32:32;;;;;;;2.53;1.15;;;19.40;36.60;;;;;;5037391;28;20065;-47
2021/04/23 04:34:58;;;;;;;2.72;1.17;;;19.40;36.60;;;;;;5038091;28;20057;-47
2021/04/23 04:37:23;;;;;;;3.50;1.40;;;19.30;36.60;;;;;;5037257;28;20033;-45
2021/04/23 04:39:49;;;;;;;2.17;1.20;;;19.30;36.50;;;;;;5037421;28;20026;-45
2021/04/23 04:42:14;;;;;;;3.40;1.42;;;19.30;36.60;;;;;;5037601;28;20029;-50
2021/04/23 04:44:40;;;;;;;2.88;1.13;;;19.30;36.50;;;;;;5037611;28;20067;-47
2021/04/23 04:47:06;;;;;;;1.50;1.30;;;19.30;36.50;;;;;;5037181;28;20356;-47
2021/04/23 04:49:31;;;;;;;2.08;1.17;;;19.30;36.50;;;;;;5037439;28;20036;-45
2021/04/23 04:51:57;;;;;;;4.63;1.27;;;19.30;36.50;;;;;;5037164;28;20045;-45
2021/04/23 04:54:22;;;;;;;3.70;1.48;;;19.30;36.60;;;;;;5037230;28;20026;-49
2021/04/23 04:56:48;;;;;;;2.38;1.42;;;19.30;36.60;;;;;;5037088;28;20468;-45
2021/04/23 04:59:13;;;;;;;3.30;1.30;;;19.30;36.60;;;;;;5037219;28;20045;-49
2021/04/23 05:01:39;;;;;;;2.13;1.30;;;19.30;36.60;;;;;;5036933;28;20025;-47
2021/04/23 05:04:05;;;;;;;3.58;1.20;;;19.30;36.60;;;;;;5037138;28;20108;-45
2021/04/23 05:06:30;;;;;;;2.22;1.20;;;19.30;36.60;;;;;;5037098;28;20075;-45
2021/04/23 05:08:56;;;;;;;2.92;1.25;;;19.30;36.60;;;;;;5037155;28;20028;-46
2021/04/23 05:11:21;;;;;;;4.45;1.40;;;19.30;36.70;;;;;;5036787;28;20037;-45
2021/04/23 05:13:47;;;;;;;1.73;0.95;;;19.20;36.60;;;;;;5036792;28;20518;-45
2021/04/23 05:16:12;;;;;;;2.78;1.10;;;19.30;36.70;;;;;;5036854;28;20388;-44
2021/04/23 05:18:38;;;;;;;2.38;1.08;;;19.20;36.70;;;;;;5036871;28;20036;-45
2021/04/23 05:21:05;;;;;;;2.50;1.27;;;19.20;36.70;;;;;;5036323;28;20025;-45
2021/04/23 05:23:30;;;;;;;3.65;1.23;;;19.20;36.80;;;;;;5036652;28;20093;-44
2021/04/23 05:25:56;;;;;;;2.53;0.98;;;19.20;36.80;;;;;;5035273;28;20080;-44
2021/04/23 05:28:22;;;;;;;1.77;1.08;;;19.20;36.80;;;;;;5036380;28;20432;-47
2021/04/23 05:30:48;;;;;;;2.83;1.30;;;19.20;36.90;;;;;;5036329;28;20021;-46
2021/04/23 05:33:13;;;;;;;2.75;1.20;;;19.20;36.90;;;;;;5036758;28;20102;-46
2021/04/23 05:35:40;;;;;;;4.10;1.67;;;19.20;37.00;;;;;;5036402;28;20022;-47
2021/04/23 05:38:06;;;;;;;2.58;1.40;;;19.20;37.30;;;;;;5036300;28;20025;-45
2021/04/23 05:40:43;;;;;;;1.63;0.85;;;19.20;37.90;;;;;;5036820;28;20039;-45
2021/04/23 05:43:09;;;;;;;4.85;1.08;;;19.20;38.30;;;;;;5036160;28;20061;-47
2021/04/23 05:45:37;;;;;;;2.28;1.38;;;19.20;38.40;;;;;;5036072;28;20344;-46
2021/04/23 05:48:03;;;;;;;9.93;1.85;;;19.20;38.70;;;;;;5035644;28;20021;-47
2021/04/23 05:50:29;;;;;;;5.55;1.08;;;19.20;38.70;;;;;;5035716;28;20052;-47
2021/04/23 05:52:55;;;;;;;2.92;1.20;;;19.20;38.70;;;;;;5035928;28;20033;-47
2021/04/23 05:55:25;;;;;;;4.90;1.20;;;19.20;38.80;;;;;;5035750;28;20033;-46
2021/04/23 05:57:52;;;;;;;11.95;1.50;;;19.20;39.00;;;;;;5035676;28;20503;-46
2021/04/23 06:00:19;;;;;;;4.03;1.48;;;19.20;38.90;;;;;;5036147;28;20025;-47
2021/04/23 06:02:47;;;;;;;4.35;1.13;;;19.20;39.00;;;;;;5035640;28;20467;-47
2021/04/23 06:05:13;;;;;;;6.22;1.27;;;19.20;39.20;;;;;;5035967;28;20022;-49
2021/04/23 06:07:39;;;;;;;4.50;1.45;;;19.20;39.30;;;;;;5017860;28;20056;-45
2021/04/23 06:10:07;;;;;;;8.80;1.23;;;19.20;39.30;;;;;;5035725;28;20064;-48
2021/04/23 06:12:33;;;;;;;8.50;1.10;;;19.30;39.70;;;;;;5035926;28;20034;-45
2021/04/23 06:14:58;;;;;;;2.10;1.05;;;19.30;40.00;;;;;;5035395;28;20049;-48
2021/04/23 06:17:24;;;;;;;3.28;1.52;;;19.30;40.10;;;;;;5035799;28;20037;-49
2021/04/23 06:19:49;;;;;;;4.82;1.60;;;19.40;40.30;;;;;;5035295;28;20407;-44
2021/04/23 06:22:15;;;;;;;8.30;1.42;;;19.40;40.30;;;;;;5035169;28;20052;-46
2021/04/23 06:24:41;;;;;;;2.90;1.38;;;19.40;40.30;;;;;;5035422;28;20451;-51
2021/04/23 06:27:07;;;;;;;9.93;1.52;;;19.50;40.30;;;;;;5035186;28;20017;-49
2021/04/23 06:29:33;;;;;;;13.13;2.00;;;19.50;40.40;;;;;;5035589;28;20029;-49
2021/04/23 06:31:59;;;;;;;4.93;1.02;;;19.50;40.20;;;;;;5035229;28;20400;-46
2021/04/23 06:34:25;;;;;;;6.22;1.63;;;19.60;40.30;;;;;;5035335;28;20033;-52
2021/04/23 06:36:50;;;;;;;7.88;1.88;;;19.60;40.70;;;;;;5035166;28;20088;-46
2021/04/23 06:39:18;;;;;;;6.22;1.48;;;19.60;41.00;;;;;;5035144;28;20025;-53
2021/04/23 06:41:47;;;;;;;6.95;1.40;;;19.60;41.20;;;;;;5035284;28;20037;-48
2021/04/23 06:44:13;;;;;;;8.25;1.50;;;19.60;41.40;;;;;;5035100;28;20034;-49
2021/04/23 06:46:38;;;;;;;6.25;1.52;;;19.70;41.50;;;;;;5035396;28;20031;-46
2021/04/23 06:49:04;;;;;;;7.20;1.40;;;19.70;41.60;;;;;;5035249;28;20052;-50
2021/04/23 06:51:31;;;;;;;4.28;0.98;;;19.70;41.60;;;;;;5034721;28;20116;-55
2021/04/23 06:53:57;;;;;;;4.45;1.27;;;19.80;41.70;;;;;;5034619;28;20025;-50
2021/04/23 06:56:22;;;;;;;2.58;1.52;;;19.70;41.60;;;;;;5034765;28;20025;-47
2021/04/23 06:58:48;;;;;;;6.03;1.48;;;19.80;41.80;;;;;;5034856;28;20476;-49
2021/04/23 07:01:16;;;;;;;2.88;1.25;;;19.80;41.80;;;;;;5034928;28;20021;-48
2021/04/23 07:03:42;;;;;;;5.53;1.40;;;19.80;41.40;;;;;;5034695;28;20072;-50
2021/04/23 07:06:08;;;;;;;14.15;1.48;;;19.90;41.50;;;;;;5034561;28;20018;-53
2021/04/23 07:08:35;;;;;;;4.53;1.30;;;19.90;41.20;;;;;;5034628;28;20083;-48
2021/04/23 07:11:01;;;;;;;9.25;1.30;;;19.90;40.90;;;;;;5034496;28;20022;-47
2021/04/23 07:13:27;;;;;;;5.35;1.40;;;19.90;40.70;;;;;;5034904;28;20053;-51
2021/04/23 07:15:52;;;;;;;7.93;1.40;;;19.90;40.30;;;;;;5034862;28;20345;-48
2021/04/23 07:18:18;;;;;;;7.28;1.42;;;20.00;40.50;;;;;;5033729;28;20355;-53
2021/04/23 07:20:43;;;;;;;4.97;1.35;;;20.00;40.50;;;;;;5034252;28;20104;-53
2021/04/23 07:23:09;;;;;;;5.00;1.38;;;20.00;40.60;;;;;;5034757;28;20033;-48
2021/04/23 07:25:35;;;;;;;3.20;1.27;;;20.00;41.00;;;;;;5034653;28;20057;-49
2021/04/23 07:28:01;;;;;;;3.92;1.20;;;20.00;40.90;;;;;;5034316;28;20429;-49
2021/04/23 07:30:30;;;;;;;5.93;1.45;;;20.10;41.10;;;;;;5017425;28;20071;-52
2021/04/23 07:32:57;;;;;;;4.97;1.30;;;20.10;41.20;;;;;;5034655;28;20191;-48
2021/04/23 07:35:23;;;;;;;5.53;1.77;;;20.10;40.80;;;;;;5034409;28;20030;-50
2021/04/23 07:37:49;;;;;;;6.72;1.48;;;20.10;40.80;;;;;;5034585;28;20094;-47
2021/04/23 07:40:17;;;;;;;3.42;1.27;;;20.10;41.00;;;;;;5034222;28;20036;-50
2021/04/23 07:42:43;;;;;;;6.18;1.15;;;20.10;41.00;;;;;;5034537;28;20040;-49
2021/04/23 07:45:09;;;;;;;6.03;1.38;;;20.10;40.90;;;;;;5034220;28;20033;-49
2021/04/23 07:47:36;;;;;;;4.75;0.82;;;20.20;40.20;;;;;;5034760;28;20026;-52
2021/04/23 07:50:07;;;;;;;7.22;1.38;;;20.20;40.30;;;;;;5038176;28;20022;-48
2021/04/23 07:52:32;;;;;;;2.45;1.13;;;20.20;40.60;;;;;;5038297;28;20033;-49
2021/04/23 07:55:01;;;;;;;7.15;1.00;;;20.20;40.70;;;;;;5038495;28;20064;-51
2021/04/23 07:57:26;;;;;;;3.60;1.00;;;20.20;40.90;;;;;;5038286;28;20337;-45
2021/04/23 07:59:53;;;;;;;3.90;1.40;;;20.20;41.00;;;;;;5037940;28;20037;-48
2021/04/23 08:02:19;;;;;;;3.78;0.90;;;20.20;40.90;;;;;;5038217;28;20022;-49
2021/04/23 08:04:44;;;;;;;4.03;1.40;;;20.20;40.90;;;;;;5037940;28;20024;-50
2021/04/23 08:07:11;;;;;;;3.78;1.10;;;20.30;40.90;;;;;;5038081;28;20348;-43
2021/04/23 08:09:37;;;;;;;2.88;1.00;;;20.20;40.60;;;;;;5038044;28;20032;-44
2021/04/23 08:12:04;;;;;;;4.53;1.20;;;20.30;40.70;;;;;;5038058;28;20022;-48
2021/04/23 08:14:30;;;;;;;1.88;0.75;;;20.30;40.70;;;;;;5038081;28;20352;-46
2021/04/23 08:16:55;;;;;;;2.58;1.20;;;20.30;40.40;;;;;;5037960;28;20029;-44
2021/04/23 08:19:21;;;;;;;4.80;1.50;;;20.30;40.30;;;;;;5037698;28;20025;-47
2021/04/23 08:21:47;;;;;;;5.90;1.17;;;20.30;40.30;;;;;;5037799;28;20022;-53
2021/04/23 08:24:13;;;;;;;2.05;0.73;;;20.40;41.20;;;;;;5037971;28;20021;-47
2021/04/23 08:26:40;;;;;;;5.57;1.23;;;20.40;40.40;;;;;;5037921;28;20333;-46
2021/04/23 08:29:06;;;;;;;3.25;0.98;;;20.40;40.10;;;;;;5038000;28;20052;-50
2021/04/23 08:31:32;;;;;;;3.40;1.02;;;20.40;40.10;;;;;;5037985;28;20025;-47
2021/04/23 08:33:57;;;;;;;3.83;1.13;;;20.40;40.10;;;;;;5037133;28;20466;-47
2021/04/23 08:36:23;;;;;;;4.05;1.38;;;20.40;39.80;;;;;;5037544;28;20144;-48
2021/04/23 08:38:49;;;;;;;2.45;0.60;;;20.40;39.70;;;;;;5037874;28;20099;-46
2021/04/23 08:41:14;;;;;;;2.10;0.90;;;20.40;39.70;;;;;;5037580;28;20025;-52
2021/04/23 08:43:40;;;;;;;1.80;1.02;;;20.50;39.70;;;;;;5037649;28;20022;-45
2021/04/23 08:46:05;;;;;;;2.65;0.93;;;20.50;39.60;;;;;;5037391;28;20500;-51
2021/04/23 08:48:33;;;;;;;2.45;1.10;;;20.50;39.50;;;;;;5037392;28;20025;-51
2021/04/23 08:50:59;;;;;;;2.38;0.82;;;20.60;39.40;;;;;;5037195;28;20399;-46
2021/04/23 08:53:27;;;;;;;2.60;1.00;;;20.60;39.30;;;;;;5037155;28;20034;-52
2021/04/23 08:55:55;;;;;;;2.80;1.02;;;20.60;39.20;;;;;;5037440;28;20017;-52
2021/04/23 08:58:20;;;;;;;2.25;0.88;;;20.60;39.10;;;;;;5037398;28;20045;-52
2021/04/23 09:00:46;;;;;;;4.32;1.20;;;20.60;39.00;;;;;;5036663;28;20451;-47
2021/04/23 09:03:14;;;;;;;2.63;1.00;;;20.70;39.10;;;;;;5036846;28;20035;-49
2021/04/23 09:05:39;;;;;;;1.65;0.77;;;20.70;39.10;;;;;;5037029;28;20039;-46
2021/04/23 09:08:11;;;;;;;4.65;1.20;;;20.70;39.00;;;;;;5037199;28;20428;-43
2021/04/23 09:10:39;;;;;;;1.88;0.93;;;20.80;39.10;;;;;;5037048;28;20040;-45
2021/04/23 09:13:10;;;;;;;2.15;0.88;;;20.80;39.00;;;;;;5037093;28;20356;-49
2021/04/23 09:15:38;;;;;;;2.25;0.93;;;20.90;39.00;;;;;;5036835;28;20014;-46
2021/04/23 09:18:14;;;;;;;1.42;0.70;;;20.80;39.60;;;;;;5036730;28;20096;-46
2021/04/23 09:20:45;;;;;;;2.33;0.73;;;20.90;39.00;;;;;;5036830;28;20021;-48
2021/04/23 09:23:13;;;;;;;2.67;0.80;;;20.90;39.00;;;;;;5036907;28;20049;-48
2021/04/23 09:25:59;;;;;;;1.80;0.70;;;20.90;39.00;;;;;;5036938;28;20052;-49
2021/04/23 09:28:42;;;;;;;2.65;0.98;;;20.90;39.10;;;;;;5036487;28;20033;-51
2021/04/23 09:31:32;;;;;;;2.45;0.73;;;20.90;39.10;;;;;;5036766;28;20029;-47
2021/04/23 09:34:01;;;;;;;2.80;0.90;;;20.90;39.10;;;;;;5036859;28;20029;-47
2021/04/23 09:36:37;;;;;;;4.40;1.00;;;20.90;39.20;;;;;;5036319;28;20021;-51
2021/04/23 09:39:13;;;;;;;1.80;0.60;;;20.90;39.20;;;;;;5036681;28;20105;-47
2021/04/23 09:41:42;;;;;;;1.83;1.00;;;20.90;39.10;;;;;;5036594;28;20033;-44
2021/04/23 09:44:28;;;;;;;2.25;0.88;;;20.90;39.10;;;;;;5036236;28;20124;-45
2021/04/23 09:47:06;;;;;;;5.72;0.80;;;21.00;39.20;;;;;;5036151;28;20029;-48
2021/04/23 09:49:32;;;;;;;1.27;0.80;;;20.90;39.20;;;;;;5036178;28;20034;-45
2021/04/23 09:52:00;;;;;;;2.17;0.93;;;20.90;39.30;;;;;;5035929;28;20029;-47
2021/04/23 09:54:26;;;;;;;2.15;0.70;;;20.90;39.30;;;;;;5035784;28;20152;-47
2021/04/23 09:56:53;;;;;;;1.98;0.77;;;21.00;39.30;;;;;;5036254;28;20049;-46
2021/04/23 09:59:24;;;;;;;1.48;0.57;;;21.00;39.20;;;;;;5035987;28;20018;-46
2021/04/23 10:01:51;;;;;;;2.58;0.80;;;21.00;39.10;;;;;;5035696;28;20471;-47
2021/04/23 10:04:34;;;;;;;1.33;0.75;;;21.00;39.00;;;;;;5035846;28;20021;-46
2021/04/23 10:07:22;;;;;;;3.10;0.90;;;21.10;39.00;;;;;;5035698;28;20112;-43
2021/04/23 10:10:09;;;;;;;3.10;0.77;;;21.10;38.90;;;;;;5035427;28;20021;-45
2021/04/23 10:13:16;;;;;;;1.80;0.80;;;21.10;38.80;;;;;;5020317;28;20034;-46
2021/04/23 10:15:43;;;;;;;4.13;1.20;;;21.10;38.90;;;;;;4936456;29;20119;-49
2021/04/23 10:18:11;;;;;;;2.95;0.75;;;21.20;38.90;;;;;;4936229;29;20032;-46
2021/04/23 10:20:42;;;;;;;1.77;0.77;;;21.20;38.80;;;;;;4986544;28;20041;-44
2021/04/23 10:23:11;;;;;;;2.22;0.90;;;21.20;38.80;;;;;;5035583;28;20029;-43
2021/04/23 10:25:37;;;;;;;1.33;0.98;;;21.20;38.80;;;;;;5035392;28;20051;-46
2021/04/23 10:28:08;;;;;;;2.38;0.85;;;21.30;38.90;;;;;;5035427;28;20120;-45
2021/04/23 10:30:37;;;;;;;1.55;0.73;;;21.30;38.80;;;;;;5035392;28;20025;-44
2021/04/23 10:33:10;;;;;;;4.15;0.80;;;21.30;38.80;;;;;;5035178;28;20067;-48
2021/04/23 10:35:37;;;;;;;1.83;0.80;;;21.30;38.80;;;;;;5035059;28;20026;-46
2021/04/23 10:38:08;;;;;;;2.28;1.05;;;21.40;38.90;;;;;;5035125;28;20030;-44
2021/04/23 10:40:35;;;;;;;2.08;0.80;;;21.40;38.90;;;;;;5035200;28;20017;-44
2021/04/23 10:43:10;;;;;;;2.42;1.00;;;21.40;38.90;;;;;;5034966;28;20372;-45
2021/04/23 10:45:49;;;;;;;2.05;0.70;;;21.40;38.90;;;;;;5035315;28;20326;-45
2021/04/23 10:48:15;;;;;;;0.98;0.63;;;21.50;38.90;;;;;;5035409;28;20504;-44
2021/04/23 10:50:46;;;;;;;2.20;0.73;;;21.50;38.90;;;;;;5035116;28;20036;-46
2021/04/23 10:53:15;;;;;;;2.78;0.80;;;21.50;39.00;;;;;;5035053;28;20052;-48
2021/04/23 10:55:54;;;;;;;1.65;0.95;;;21.50;38.90;;;;;;5034704;28;20021;-48
2021/04/23 10:58:25;;;;;;;1.90;0.70;;;21.50;39.00;;;;;;5034843;28;20275;-46
2021/04/23 11:00:52;;;;;;;1.67;0.73;;;21.50;39.00;;;;;;5034842;28;20463;-46
2021/04/23 11:03:27;;;;;;;3.60;1.02;;;21.60;39.10;;;;;;5017134;28;20337;-51
2021/04/23 11:05:58;;;;;;;4.57;1.00;;;21.60;39.00;;;;;;5035084;28;20021;-50
2021/04/23 11:08:26;;;;;;;2.83;1.23;;;21.60;39.00;;;;;;5034428;28;20029;-47
2021/04/23 11:11:11;;;;;;;1.58;0.80;;;21.60;39.00;;;;;;5034869;28;20078;-46
2021/04/23 11:13:39;;;;;;;1.50;0.73;;;21.60;39.00;;;;;;5034924;28;20037;-49
2021/04/23 11:16:23;;;;;;;1.50;0.90;;;21.60;39.00;;;;;;5034920;28;20042;-46
2021/04/23 11:18:54;;;;;;;2.42;0.93;;;21.70;39.00;;;;;;5034588;28;20061;-47
2021/04/23 11:21:35;;;;;;;1.67;0.60;;;21.60;39.00;;;;;;5034803;28;20071;-44
2021/04/23 11:24:12;;;;;;;1.33;0.90;;;21.70;39.00;;;;;;5037243;28;20021;-46
2021/04/23 11:26:57;;;;;;;3.25;0.70;;;21.70;39.00;;;;;;5038959;28;20053;-45
2021/04/23 11:29:28;;;;;;;0.60;0.40;;;21.60;39.00;;;;;;5038784;28;20017;-52
2021/04/23 11:32:15;;;;;;;2.45;0.60;;;21.60;39.00;;;;;;5038765;28;20116;-49
2021/04/23 11:34:43;;;;;;;2.13;0.73;;;21.60;39.00;;;;;;5039653;28;20313;-49
2021/04/23 11:37:14;;;;;;;4.20;0.70;;;21.60;39.00;;;;;;5038576;28;20440;-45
2021/04/23 11:39:46;;;;;;;2.08;0.50;;;21.60;38.90;;;;;;5038469;28;20022;-46
2021/04/23 11:42:34;;;;;;;1.02;0.50;;;21.60;39.00;;;;;;5038687;28;20025;-47
2021/04/23 11:45:06;;;;;;;2.17;0.80;;;21.70;39.00;;;;;;5024974;28;20029;-45
2021/04/23 11:47:33;;;;;;;1.38;0.50;;;21.60;39.00;;;;;;5037656;28;20032;-45
2021/04/23 11:50:01;;;;;;;1.52;0.77;;;21.60;39.10;;;;;;5038459;28;20055;-48
2021/04/23 11:52:28;;;;;;;1.95;0.82;;;21.60;39.80;;;;;;5038245;28;20029;-45
2021/04/23 11:54:54;;;;;;;2.28;0.55;;;21.70;39.20;;;;;;5038199;28;20018;-47
2021/04/23 11:57:27;;;;;;;2.70;0.60;;;21.60;39.30;;;;;;5038455;28;20037;-42
2021/04/23 12:00:02;;;;;;;1.67;0.73;;;21.60;39.40;;;;;;5020908;28;20021;-48
2021/04/23 12:03:06;;;;;;;1.67;0.68;;;21.60;39.50;;;;;;5038090;28;20022;-47
2021/04/23 12:05:39;;;;;;;2.92;0.93;;;21.60;39.40;;;;;;5038059;28;20116;-49
2021/04/23 12:08:24;;;;;;;0.75;0.52;;;21.60;39.30;;;;;;5038173;28;20354;-46
2021/04/23 12:10:52;;;;;;;2.00;0.55;;;21.60;39.30;;;;;;5037975;28;20112;-48
2021/04/23 12:13:24;;;;;;;2.72;0.80;;;21.60;39.30;;;;;;5037884;28;20348;-48
2021/04/23 12:15:51;;;;;;;1.42;0.55;;;21.60;39.30;;;;;;5037612;28;20029;-44
2021/04/23 12:18:18;;;;;;;1.23;0.70;;;21.60;39.40;;;;;;5037914;28;20029;-43
2021/04/23 12:20:48;;;;;;;1.95;0.88;;;21.60;39.30;;;;;;5038154;28;20017;-47
2021/04/23 12:23:16;;;;;;;2.72;0.90;;;21.60;39.40;;;;;;5037937;28;20021;-47
2021/04/23 12:25:45;;;;;;;0.90;0.55;;;21.60;39.30;;;;;;5037965;28;20042;-44
2021/04/23 12:28:19;;;;;;;1.20;0.82;;;21.60;39.40;;;;;;5037787;28;20022;-44
2021/04/23 12:30:47;;;;;;;1.02;0.65;;;21.60;39.40;;;;;;5037994;28;20044;-44
2021/04/23 12:33:13;;;;;;;1.85;0.80;;;21.60;39.50;;;;;;5037470;28;20037;-43
2021/04/23 12:35:44;;;;;;;1.10;0.68;;;21.60;39.50;;;;;;5037053;28;20040;-46
2021/04/23 12:38:13;;;;;;;1.58;0.60;;;21.60;39.50;;;;;;5037599;28;20029;-48
2021/04/23 12:40:44;;;;;;;1.15;0.65;;;21.70;39.40;;;;;;5037816;28;20109;-48
2021/04/23 12:43:26;;;;;;;2.83;0.90;;;21.70;39.40;;;;;;5037491;28;20471;-49
2021/04/23 12:45:54;;;;;;;1.73;0.65;;;21.70;39.40;;;;;;5037413;28;20040;-49
2021/04/23 12:48:22;;;;;;;1.58;0.55;;;21.70;39.50;;;;;;5037039;28;20433;-52
2021/04/23 12:50:50;;;;;;;1.35;0.60;;;21.70;39.60;;;;;;5037179;28;20025;-47
2021/04/23 12:53:19;;;;;;;1.73;0.60;;;21.70;39.50;;;;;;5037302;28;20468;-51
2021/04/23 12:55:46;;;;;;;1.77;0.70;;;21.70;39.40;;;;;;5036924;28;20463;-51